createdAt,value
2018-06-15T00:00:25.023Z,15.19
2018-06-15T00:02:58.971Z,15.24
2018-06-15T00:05:27.991Z,15.25
2018-06-15T00:07:57.042Z,15.29
2018-06-15T00:10:25.992Z,15.27
2018-06-15T00:12:54.849Z,15.25
2018-06-15T00:15:23.864Z,15.21
2018-06-15T00:17:59.360Z,15.26
2018-06-15T00:20:28.347Z,15.25
2018-06-15T00:22:57.341Z,15.23
2018-06-15T00:25:26.296Z,15.25
2018-06-15T00:27:55.377Z,15.28
2018-06-15T00:30:24.725Z,15.19
2018-06-15T00:32:53.955Z,15.18
2018-06-15T00:35:22.934Z,15.10
2018-06-15T00:37:51.940Z,15.11
2018-06-15T00:40:20.896Z,15.16
2018-06-15T00:42:50.081Z,15.24
2018-06-15T00:45:19.116Z,15.26
2018-06-15T00:47:48.282Z,15.23
2018-06-15T00:50:17.617Z,15.19
2018-06-15T00:52:46.790Z,15.24
2018-06-15T00:55:15.868Z,15.23
2018-06-15T00:57:48.685Z,15.13
2018-06-15T01:00:18.054Z,15.21
2018-06-15T01:02:47.073Z,15.23
2018-06-15T01:05:16.260Z,15.26
2018-06-15T01:07:45.271Z,15.28
2018-06-15T01:10:14.512Z,15.24
2018-06-15T01:12:43.495Z,15.28
2018-06-15T01:15:12.754Z,15.27
2018-06-15T01:17:41.832Z,15.23
2018-06-15T01:20:10.691Z,15.18
2018-06-15T01:22:39.631Z,15.19
2018-06-15T01:25:08.612Z,15.21
2018-06-15T01:27:37.599Z,15.25
2018-06-15T01:30:07.009Z,15.21
2018-06-15T01:32:36.370Z,15.18
2018-06-15T01:35:05.411Z,15.12
2018-06-15T01:37:34.458Z,15.09
2018-06-15T01:40:03.421Z,15.15
2018-06-15T01:45:22.850Z,15.20
2018-06-15T01:47:52.099Z,15.13
2018-06-15T01:50:21.144Z,15.16
2018-06-15T01:52:50.036Z,15.20
2018-06-15T01:55:18.968Z,15.21
2018-06-15T01:57:48.011Z,15.15
2018-06-15T02:00:17.082Z,15.13
2018-06-15T02:02:46.536Z,15.15
2018-06-15T02:05:15.501Z,15.08
2018-06-15T02:07:44.644Z,14.98
2018-06-15T02:10:13.607Z,14.95
2018-06-15T02:12:42.580Z,15.00
2018-06-15T02:15:11.563Z,15.01
2018-06-15T02:17:40.582Z,14.98
2018-06-15T02:20:09.663Z,15.00
2018-06-15T02:22:38.678Z,14.90
2018-06-15T02:25:07.668Z,14.87
2018-06-15T02:27:36.574Z,14.84
2018-06-15T02:30:05.979Z,14.70
2018-06-15T02:32:34.934Z,14.69
2018-06-15T02:35:03.917Z,14.72
2018-06-15T02:37:32.933Z,14.73
2018-06-15T02:40:01.970Z,14.65
2018-06-15T02:42:30.933Z,14.58
2018-06-15T02:44:59.907Z,14.47
2018-06-15T02:47:28.860Z,14.45
2018-06-15T02:49:57.791Z,14.33
2018-06-15T02:52:26.806Z,14.26
2018-06-15T02:54:55.745Z,14.22
2018-06-15T02:57:24.818Z,14.23
2018-06-15T02:59:53.765Z,14.21
2018-06-15T03:02:22.811Z,14.18
2018-06-15T03:04:51.768Z,14.15
2018-06-15T03:07:20.759Z,14.16
2018-06-15T03:09:49.702Z,14.10
2018-06-15T03:12:18.687Z,14.08
2018-06-15T03:14:47.759Z,14.08
2018-06-15T03:17:16.745Z,14.07
2018-06-15T03:19:45.763Z,14.01
2018-06-15T03:22:14.672Z,13.99
2018-06-15T03:24:43.705Z,13.98
2018-06-15T03:27:12.915Z,13.90
2018-06-15T03:29:42.099Z,13.92
2018-06-15T03:32:11.038Z,13.96
2018-06-15T03:34:40.027Z,13.95
2018-06-15T03:37:08.999Z,13.95
2018-06-15T03:39:38.032Z,13.98
2018-06-15T03:42:07.175Z,13.99
2018-06-15T03:44:36.238Z,13.99
2018-06-15T03:47:05.213Z,13.99
2018-06-15T03:49:36.468Z,14.00
2018-06-15T03:52:05.380Z,14.03
2018-06-15T03:54:34.317Z,14.07
2018-06-15T03:57:03.257Z,14.04
2018-06-15T03:59:31.961Z,14.01
2018-06-15T04:02:01.447Z,14.02
2018-06-15T04:04:30.713Z,14.02
2018-06-15T04:06:59.702Z,13.95
2018-06-15T04:09:28.670Z,13.97
2018-06-15T04:11:57.642Z,13.96
2018-06-15T04:14:26.600Z,13.97
2018-06-15T04:16:55.594Z,14.04
2018-06-15T04:19:24.541Z,14.03
2018-06-15T04:21:53.494Z,14.04
2018-06-15T04:24:22.445Z,14.14
2018-06-15T04:26:51.467Z,14.19
2018-06-15T04:29:20.516Z,13.96
2018-06-15T04:31:49.647Z,14.33
2018-06-15T04:34:18.564Z,14.44
2018-06-15T04:36:47.620Z,14.51
2018-06-15T04:39:16.618Z,14.48
2018-06-15T04:41:45.618Z,14.53
2018-06-15T04:44:14.621Z,14.63
2018-06-15T04:46:43.614Z,14.71
2018-06-15T04:49:12.632Z,14.79
2018-06-15T04:51:41.564Z,14.85
2018-06-15T04:54:10.504Z,14.89
2018-06-15T04:56:39.485Z,14.89
2018-06-15T04:59:08.478Z,14.93
2018-06-15T05:01:37.530Z,14.95
2018-06-15T05:04:06.487Z,14.99
2018-06-15T05:06:35.473Z,15.05
2018-06-15T05:09:06.208Z,15.12
2018-06-15T05:11:35.136Z,15.20
2018-06-15T05:14:04.170Z,15.25
2018-06-15T05:16:33.111Z,15.35
2018-06-15T05:19:02.093Z,15.46
2018-06-15T05:21:30.993Z,15.58
2018-06-15T05:23:59.976Z,15.65
2018-06-15T05:26:28.954Z,15.70
2018-06-15T05:28:58.017Z,15.73
2018-06-15T05:31:27.022Z,15.84
2018-06-15T05:33:56.019Z,15.96
2018-06-15T05:36:24.975Z,16.04
2018-06-15T05:38:53.955Z,16.07
2018-06-15T05:41:22.828Z,16.10
2018-06-15T05:43:51.813Z,16.09
2018-06-15T05:46:20.711Z,16.21
2018-06-15T05:48:49.639Z,16.25
2018-06-15T05:51:18.600Z,16.15
2018-06-15T05:53:47.498Z,16.21
2018-06-15T05:56:16.441Z,16.26
2018-06-15T05:58:45.430Z,16.28
2018-06-15T06:01:14.359Z,16.34
2018-06-15T06:03:43.447Z,16.37
2018-06-15T06:06:12.423Z,16.44
2018-06-15T06:11:31.425Z,16.55
2018-06-15T06:14:00.380Z,16.57
2018-06-15T06:16:29.329Z,16.55
2018-06-15T06:18:58.303Z,16.55
2018-06-15T06:21:27.317Z,16.66
2018-06-15T06:23:56.597Z,16.71
2018-06-15T06:26:25.527Z,16.81
2018-06-15T06:28:54.446Z,16.89
2018-06-15T06:31:23.416Z,16.99
2018-06-15T06:33:52.306Z,17.05
2018-06-15T06:36:21.282Z,17.14
2018-06-15T06:38:50.180Z,17.18
2018-06-15T06:41:19.062Z,17.12
2018-06-15T06:43:48.037Z,17.10
2018-06-15T06:46:17.007Z,17.17
2018-06-15T06:48:46.014Z,17.29
2018-06-15T06:51:14.959Z,17.36
2018-06-15T06:53:43.916Z,17.46
2018-06-15T06:56:12.917Z,17.58
2018-06-15T06:58:41.834Z,17.67
2018-06-15T07:01:10.876Z,17.64
2018-06-15T07:03:39.912Z,17.72
2018-06-15T07:06:08.875Z,17.87
2018-06-15T07:08:37.816Z,17.84
2018-06-15T07:11:06.742Z,17.77
2018-06-15T07:13:35.660Z,17.77
2018-06-15T07:16:04.617Z,17.77
2018-06-15T07:18:33.608Z,17.84
2018-06-15T07:21:02.953Z,17.89
2018-06-15T07:23:32.214Z,17.90
2018-06-15T07:26:01.275Z,17.98
2018-06-15T07:28:30.575Z,17.99
2018-06-15T07:30:59.708Z,17.92
2018-06-15T07:33:28.685Z,17.85
2018-06-15T07:35:57.628Z,17.94
2018-06-15T07:38:26.576Z,17.86
2018-06-15T07:40:55.485Z,17.89
2018-06-15T07:43:24.386Z,17.82
2018-06-15T07:45:53.475Z,17.89
2018-06-15T07:48:22.497Z,17.81
2018-06-15T07:50:51.492Z,17.69
2018-06-15T07:53:20.387Z,17.81
2018-06-15T07:55:49.357Z,17.94
2018-06-15T07:58:18.274Z,17.99
2018-06-15T08:00:47.156Z,18.07
2018-06-15T08:03:16.103Z,18.15
2018-06-15T08:05:45.025Z,18.29
2018-06-15T08:08:14.263Z,18.37
2018-06-15T08:10:43.173Z,18.44
2018-06-15T08:13:20.324Z,18.36
2018-06-15T08:15:49.276Z,17.83
2018-06-15T08:18:18.192Z,17.99
2018-06-15T08:20:47.124Z,18.14
2018-06-15T08:23:24.589Z,18.18
2018-06-15T08:26:03.231Z,18.19
2018-06-15T08:28:40.031Z,18.38
2018-06-15T08:31:16.848Z,18.64
2018-06-15T08:33:56.577Z,18.64
2018-06-15T08:36:36.183Z,18.70
2018-06-15T08:39:16.567Z,18.67
2018-06-15T08:41:55.431Z,18.64
2018-06-15T08:44:32.382Z,18.63
2018-06-15T08:47:09.887Z,18.68
2018-06-15T08:49:47.665Z,18.74
2018-06-15T08:52:16.640Z,18.81
2018-06-15T08:54:48.013Z,18.81
2018-06-15T08:57:16.875Z,18.86
2018-06-15T08:59:47.704Z,19.01
2018-06-15T09:02:16.836Z,19.03
2018-06-15T09:04:45.764Z,19.07
2018-06-15T09:07:14.708Z,19.00
2018-06-15T09:09:43.594Z,18.95
2018-06-15T09:12:12.579Z,19.06
2018-06-15T09:14:41.504Z,18.74
2018-06-15T09:17:10.450Z,18.79
2018-06-15T09:19:39.360Z,18.79
2018-06-15T09:22:08.275Z,18.87
2018-06-15T09:24:37.181Z,19.00
2018-06-15T09:27:06.155Z,18.94
2018-06-15T09:29:35.097Z,19.09
2018-06-15T09:32:04.588Z,19.28
2018-06-15T09:34:33.462Z,19.44
2018-06-15T09:37:02.785Z,19.57
2018-06-15T09:39:31.871Z,19.74
2018-06-15T09:42:00.884Z,19.66
2018-06-15T09:44:31.222Z,19.83
2018-06-15T09:47:00.208Z,19.64
2018-06-15T09:49:29.212Z,19.82
2018-06-15T09:52:01.268Z,20.08
2018-06-15T09:54:31.016Z,20.38
2018-06-15T09:57:00.142Z,20.67
2018-06-15T09:59:29.271Z,20.56
2018-06-15T10:01:58.276Z,20.65
2018-06-15T10:04:28.192Z,20.49
2018-06-15T10:06:57.347Z,20.65
2018-06-15T10:09:37.993Z,20.72
2018-06-15T10:12:07.323Z,20.80
2018-06-15T10:14:36.275Z,20.94
2018-06-15T10:17:05.404Z,21.02
2018-06-15T10:19:34.463Z,21.16
2018-06-15T10:22:03.595Z,21.22
2018-06-15T10:24:32.535Z,21.44
2018-06-15T10:27:01.450Z,21.60
2018-06-15T10:29:30.361Z,21.07
2018-06-15T10:31:59.243Z,21.20
2018-06-15T10:34:28.102Z,21.43
2018-06-15T10:36:57.047Z,21.51
2018-06-15T10:39:25.980Z,21.67
2018-06-15T10:41:56.378Z,21.73
2018-06-15T10:44:25.345Z,21.75
2018-06-15T10:46:54.257Z,21.90
2018-06-15T10:49:23.321Z,21.80
2018-06-15T10:51:52.233Z,21.55
2018-06-15T10:54:21.101Z,21.41
2018-06-15T10:56:49.951Z,21.33
2018-06-15T10:59:18.908Z,21.42
2018-06-15T11:01:47.768Z,21.48
2018-06-15T11:04:16.726Z,21.47
2018-06-15T11:06:45.618Z,21.42
2018-06-15T11:09:14.482Z,21.51
2018-06-15T11:11:43.433Z,21.47
2018-06-15T11:14:12.281Z,21.33
2018-06-15T11:16:41.178Z,21.33
2018-06-15T11:19:10.046Z,21.25
2018-06-15T11:21:38.907Z,21.17
2018-06-15T11:24:07.778Z,21.35
2018-06-15T11:26:36.701Z,21.42
2018-06-15T11:29:05.806Z,21.63
2018-06-15T11:31:34.654Z,21.81
2018-06-15T11:34:03.470Z,21.93
2018-06-15T11:36:32.325Z,21.95
2018-06-15T11:39:01.393Z,21.87
2018-06-15T11:41:30.293Z,21.94
2018-06-15T11:43:59.409Z,21.80
2018-06-15T11:46:28.317Z,21.76
2018-06-15T11:48:57.205Z,21.67
2018-06-15T11:51:26.861Z,21.45
2018-06-15T11:53:55.840Z,21.64
2018-06-15T11:56:24.969Z,21.42
2018-06-15T11:58:53.924Z,21.40
2018-06-15T12:01:22.826Z,21.49
2018-06-15T12:03:51.860Z,21.21
2018-06-15T12:06:21.819Z,21.24
2018-06-15T12:08:50.671Z,21.43
2018-06-15T12:11:19.704Z,21.37
2018-06-15T12:13:48.702Z,21.32
2018-06-15T12:16:17.601Z,20.90
2018-06-15T12:18:46.504Z,21.08
2018-06-15T12:21:15.381Z,21.01
2018-06-15T12:26:34.347Z,20.87
2018-06-15T12:29:03.298Z,21.05
2018-06-15T12:31:32.300Z,21.31
2018-06-15T12:34:01.419Z,21.52
2018-06-15T12:36:30.300Z,21.71
2018-06-15T12:38:59.299Z,21.86
2018-06-15T12:41:28.228Z,21.77
2018-06-15T12:43:57.047Z,21.78
2018-06-15T12:46:25.886Z,21.80
2018-06-15T12:48:54.709Z,21.60
2018-06-15T12:51:23.591Z,21.49
2018-06-15T12:53:52.524Z,21.14
2018-06-15T12:56:21.402Z,21.25
2018-06-15T12:58:50.423Z,21.62
2018-06-15T13:01:19.310Z,21.30
2018-06-15T13:03:48.636Z,21.41
2018-06-15T13:06:20.109Z,21.71
2018-06-15T13:08:49.055Z,21.84
2018-06-15T13:11:17.903Z,21.94
2018-06-15T13:13:46.776Z,22.13
2018-06-15T13:16:15.602Z,22.21
2018-06-15T13:18:44.406Z,22.36
2018-06-15T13:21:13.374Z,22.16
2018-06-15T13:23:42.278Z,22.15
2018-06-15T13:26:11.119Z,21.95
2018-06-15T13:29:05.475Z,21.75
2018-06-15T13:31:51.947Z,21.63
2018-06-15T13:34:21.922Z,21.36
2018-06-15T13:39:41.606Z,21.47
2018-06-15T13:42:26.729Z,21.56
2018-06-15T13:49:12.571Z,21.49
2018-06-15T13:51:41.692Z,21.59
2018-06-15T13:54:13.531Z,21.66
2018-06-15T13:56:43.205Z,21.76
2018-06-15T13:59:16.622Z,21.95
2018-06-15T14:01:45.594Z,22.06
2018-06-15T14:04:15.493Z,21.96
2018-06-15T14:06:45.200Z,21.99
2018-06-15T14:09:14.054Z,21.94
2018-06-15T14:11:42.961Z,22.09
2018-06-15T14:14:12.152Z,22.12
2018-06-15T14:20:54.962Z,22.48
2018-06-15T14:23:25.937Z,22.48
2018-06-15T14:25:58.785Z,22.54
2018-06-15T14:28:55.553Z,22.38
2018-06-15T14:31:25.280Z,22.05
2018-06-15T14:33:56.443Z,21.89
2018-06-15T14:36:26.476Z,22.04
2018-06-15T14:38:55.203Z,22.09
2018-06-15T14:41:25.815Z,22.21
2018-06-15T14:43:55.542Z,22.34
2018-06-15T14:46:24.875Z,22.35
2018-06-15T14:48:54.077Z,22.11
2018-06-15T14:51:22.931Z,22.07
2018-06-15T14:53:57.151Z,22.07
2018-06-15T14:56:25.923Z,22.12
2018-06-15T14:58:57.867Z,22.00
2018-06-15T15:01:30.112Z,21.58
2018-06-15T15:03:59.300Z,21.50
2018-06-15T15:06:28.129Z,21.59
2018-06-15T15:08:56.933Z,21.87
2018-06-15T15:11:25.899Z,21.96
2018-06-15T15:13:54.717Z,21.99
2018-06-15T15:16:26.284Z,22.01
2018-06-15T15:18:56.913Z,22.09
2018-06-15T15:21:30.810Z,22.06
2018-06-15T15:23:59.861Z,22.14
2018-06-15T15:26:29.512Z,22.33
2018-06-15T15:28:58.573Z,22.22
2018-06-15T15:31:28.060Z,22.12
2018-06-15T15:34:01.759Z,21.93
2018-06-15T15:36:34.976Z,21.82
2018-06-15T15:39:05.345Z,21.96
2018-06-15T15:41:34.253Z,22.09
2018-06-15T15:44:03.380Z,22.01
2018-06-15T15:46:50.573Z,22.17
2018-06-15T15:49:19.460Z,22.12
2018-06-15T15:51:54.599Z,22.13
2018-06-15T15:54:24.334Z,22.27
2018-06-15T15:56:53.742Z,22.39
2018-06-15T15:59:29.207Z,22.45
2018-06-15T16:01:58.383Z,22.27
2018-06-15T16:04:37.573Z,22.19
2018-06-15T16:07:06.752Z,22.20
2018-06-15T16:09:36.627Z,22.22
2018-06-15T16:12:07.800Z,22.32
2018-06-15T16:14:36.806Z,22.18
2018-06-15T16:17:05.987Z,22.17
2018-06-15T16:19:34.920Z,22.16
2018-06-15T16:22:03.969Z,22.19
2018-06-15T16:24:32.908Z,22.28
2018-06-15T16:27:01.905Z,22.30
2018-06-15T16:29:30.869Z,22.32
2018-06-15T16:32:00.118Z,22.31
2018-06-15T16:34:28.975Z,22.36
2018-06-15T16:36:58.959Z,22.31
2018-06-15T16:39:27.915Z,22.28
2018-06-15T16:41:57.092Z,22.42
2018-06-15T16:44:28.256Z,22.40
2018-06-15T16:46:57.360Z,22.36
2018-06-15T16:49:26.402Z,22.33
2018-06-15T16:51:55.507Z,22.35
2018-06-15T16:54:26.604Z,22.33
2018-06-15T16:56:55.658Z,22.21
2018-06-15T16:59:28.708Z,22.10
2018-06-15T17:02:04.241Z,22.16
2018-06-15T17:04:33.242Z,22.19
2018-06-15T17:07:02.708Z,22.29
2018-06-15T17:12:08.574Z,22.23
2018-06-15T17:14:44.525Z,22.28
2018-06-15T17:17:13.726Z,22.33
2018-06-15T17:19:43.345Z,22.38
2018-06-15T17:22:13.059Z,22.38
2018-06-15T17:24:42.086Z,22.48
2018-06-15T17:27:11.047Z,22.58
2018-06-15T17:29:40.088Z,22.61
2018-06-15T17:32:09.120Z,22.68
2018-06-15T17:34:38.160Z,22.72
2018-06-15T17:37:07.386Z,22.73
2018-06-15T17:39:36.376Z,22.61
2018-06-15T17:42:09.066Z,22.64
2018-06-15T17:44:38.216Z,22.67
2018-06-15T17:47:14.725Z,22.56
2018-06-15T17:49:46.915Z,22.45
2018-06-15T17:52:15.857Z,22.36
2018-06-15T17:54:45.621Z,22.20
2018-06-15T17:57:15.739Z,22.17
2018-06-15T17:59:44.950Z,22.07
2018-06-15T18:02:13.940Z,22.03
2018-06-15T18:04:55.084Z,22.05
2018-06-15T18:07:23.761Z,21.87
2018-06-15T18:09:53.249Z,21.78
2018-06-15T18:12:24.261Z,21.62
2018-06-15T18:14:53.398Z,21.45
2018-06-15T18:17:22.599Z,21.34
2018-06-15T18:19:53.245Z,21.28
2018-06-15T18:22:22.403Z,21.23
2018-06-15T18:25:01.657Z,21.06
2018-06-15T18:27:31.369Z,20.98
2018-06-15T18:30:01.192Z,20.85
2018-06-15T18:32:34.635Z,20.70
2018-06-15T18:35:06.743Z,20.63
2018-06-15T18:37:35.773Z,20.58
2018-06-15T18:40:05.979Z,20.52
2018-06-15T18:42:35.110Z,20.38
2018-06-15T18:45:17.556Z,20.30
2018-06-15T18:47:46.511Z,20.18
2018-06-15T18:50:15.534Z,20.05
2018-06-15T18:52:50.986Z,19.86
2018-06-15T18:55:20.615Z,19.67
2018-06-15T18:57:49.801Z,19.60
2018-06-15T19:00:33.813Z,19.54
2018-06-15T19:03:02.860Z,19.43
2018-06-15T19:05:43.986Z,19.33
2018-06-15T19:08:13.163Z,19.22
2018-06-15T19:10:52.329Z,19.22
2018-06-15T19:13:26.977Z,19.19
2018-06-15T19:15:56.071Z,19.15
2018-06-15T19:18:31.462Z,19.19
2018-06-15T19:21:00.689Z,19.25
2018-06-15T19:23:29.715Z,19.27
2018-06-15T19:26:13.702Z,19.27
2018-06-15T19:28:48.142Z,19.17
2018-06-15T19:31:17.144Z,19.17
2018-06-15T19:33:46.724Z,19.15
2018-06-15T19:36:15.764Z,19.19
2018-06-15T19:38:48.556Z,19.23
2018-06-15T19:41:37.434Z,19.19
2018-06-15T19:44:06.578Z,19.21
2018-06-15T19:46:35.801Z,19.24
2018-06-15T19:49:04.918Z,19.21
2018-06-15T19:51:34.042Z,19.14
2018-06-15T19:54:03.154Z,19.07
2018-06-15T19:56:34.550Z,19.05
2018-06-15T19:59:04.885Z,18.97
2018-06-15T20:01:45.941Z,18.87
2018-06-15T20:04:28.249Z,18.85
2018-06-15T20:07:01.089Z,18.80
2018-06-15T20:09:32.085Z,18.81
2018-06-15T20:12:01.136Z,18.82
2018-06-15T20:17:10.507Z,18.83
2018-06-15T20:19:40.005Z,18.81
2018-06-15T20:22:21.899Z,18.85
2018-06-15T20:24:50.972Z,18.82
2018-06-15T20:27:20.070Z,18.78
2018-06-15T20:29:52.361Z,18.81
2018-06-15T20:32:21.343Z,18.85
2018-06-15T20:34:57.603Z,18.79
2018-06-15T20:37:29.103Z,18.76
2018-06-15T20:40:04.882Z,18.73
2018-06-15T20:42:43.504Z,18.73
2018-06-15T20:45:12.534Z,18.69
2018-06-15T20:47:41.550Z,18.70
2018-06-15T20:50:10.456Z,18.62
2018-06-15T21:15:43.689Z,18.34
2018-06-15T21:18:13.065Z,18.38
2018-06-15T21:20:42.340Z,18.33
2018-06-15T21:23:11.399Z,18.32
2018-06-15T21:25:47.385Z,18.29
2018-06-15T21:28:16.665Z,18.27
2018-06-15T21:30:45.777Z,18.29
2018-06-15T21:33:14.843Z,18.26
2018-06-15T21:38:31.825Z,18.16
2018-06-15T21:41:00.931Z,18.16
2018-06-15T21:43:29.965Z,18.15
2018-06-15T21:45:58.996Z,18.19
2018-06-15T21:48:28.972Z,18.14
2018-06-15T21:50:58.082Z,18.12
2018-06-15T21:53:33.694Z,18.15
2018-06-15T21:56:04.092Z,18.12
2018-06-15T21:58:33.225Z,18.07
2018-06-15T22:01:02.571Z,18.03
2018-06-15T22:03:31.819Z,18.04
2018-06-15T22:06:00.699Z,18.09
2018-06-15T22:08:29.639Z,18.13
2018-06-15T22:10:58.423Z,18.06
2018-06-15T22:13:27.176Z,18.05
2018-06-15T22:15:56.845Z,18.10
2018-06-15T22:18:25.897Z,18.12
2018-06-15T22:20:55.055Z,18.03
2018-06-15T22:23:24.167Z,18.07
2018-06-15T22:25:53.264Z,18.16
2018-06-15T22:28:22.018Z,18.20
2018-06-15T22:30:50.757Z,18.25
2018-06-15T22:33:19.699Z,18.26
2018-06-15T22:35:49.300Z,18.27
2018-06-15T22:38:33.133Z,18.32
2018-06-15T22:44:11.132Z,18.37
2018-06-15T22:46:52.127Z,18.39
2018-06-15T23:03:33.580Z,18.33
2018-06-15T23:20:27.978Z,18.22
2018-06-15T23:23:09.833Z,18.23
2018-06-15T23:25:51.343Z,18.23
2018-06-15T23:28:31.557Z,18.26
2018-06-15T23:31:01.319Z,18.26
2018-06-15T23:33:30.888Z,18.29
2018-06-15T23:35:59.869Z,18.31
2018-06-15T23:38:28.613Z,18.32
2018-06-15T23:40:57.240Z,18.32
2018-06-15T23:43:26.191Z,18.34
2018-06-15T23:45:54.948Z,18.33
2018-06-15T23:48:23.644Z,18.27
2018-06-15T23:50:52.394Z,18.25
2018-06-15T23:53:21.296Z,18.19
2018-06-15T23:55:50.409Z,18.19
2018-06-15T23:58:19.589Z,18.15
